Time;durP1;ratioP1;P1;durP2;ratioP2;P2;SDS_P1;SDS_P2;PMS_P1;PMS_P2;Temp;Humidity;BMP_temperature;BMP_pressure;BME280_temperature;BME280_humidity;BME280_pressure;Samples;Min_cycle;Max_cycle;Signal;HPM_P1;HPM_P2
2024/03/26 00:02:19;;;;;;;74.55;37.28;;;-0.50;99.90;;;;;;4975459;28;20030;-79
2024/03/26 00:04:44;;;;;;;88.43;45.58;;;-0.60;99.90;;;;;;4975377;28;20034;-78
2024/03/26 00:07:10;;;;;;;89.07;41.75;;;-0.60;99.90;;;;;;4993004;28;20023;-79
2024/03/26 00:09:36;;;;;;;85.82;43.53;;;-0.60;99.90;;;;;;4992977;28;20049;-79
2024/03/26 00:12:02;;;;;;;69.68;34.72;;;-0.60;99.90;;;;;;4975199;28;20468;-79
2024/03/26 00:14:28;;;;;;;75.60;36.88;;;-0.60;99.90;;;;;;4975428;28;20050;-79
2024/03/26 00:16:53;;;;;;;83.60;39.88;;;-0.60;99.90;;;;;;4975285;28;20399;-79
2024/03/26 00:19:19;;;;;;;93.55;43.15;;;-0.60;99.90;;;;;;4992885;28;20029;-79
2024/03/26 00:21:45;;;;;;;99.38;44.03;;;-0.70;99.90;;;;;;4975435;28;20434;-79
2024/03/26 00:24:10;;;;;;;99.78;46.70;;;-0.60;99.90;;;;;;4974724;28;20038;-79
2024/03/26 00:26:36;;;;;;;103.05;46.05;;;-0.60;99.90;;;;;;4975210;28;20042;-79
2024/03/26 00:29:02;;;;;;;95.30;43.80;;;-0.70;99.90;;;;;;4992519;28;20026;-78
2024/03/26 00:31:33;;;;;;;99.70;45.75;;;-0.70;99.90;;;;;;4992928;28;20101;-79
2024/03/26 00:33:59;;;;;;;97.70;43.58;;;-0.70;99.90;;;;;;4974704;28;20046;-79
2024/03/26 00:36:26;;;;;;;89.35;42.85;;;-0.70;99.90;;;;;;4975188;28;20065;-79
2024/03/26 00:38:51;;;;;;;97.05;45.78;;;-0.70;99.90;;;;;;4975050;28;20030;-79
2024/03/26 00:41:17;;;;;;;87.78;41.75;;;-0.70;99.90;;;;;;4993050;28;20088;-79
2024/03/26 00:43:43;;;;;;;76.82;37.28;;;-0.70;99.90;;;;;;4975107;28;20054;-79
2024/03/26 00:46:09;;;;;;;73.40;39.20;;;-0.70;99.90;;;;;;4992478;28;20033;-78
2024/03/26 00:48:34;;;;;;;74.55;34.42;;;-0.70;99.90;;;;;;4975097;28;20022;-79
2024/03/26 00:51:00;;;;;;;58.78;31.65;;;-0.80;99.90;;;;;;4975333;28;20026;-80
2024/03/26 00:53:25;;;;;;;66.38;33.55;;;-0.80;99.90;;;;;;4991643;28;20038;-79
2024/03/26 00:55:51;;;;;;;65.32;33.53;;;-0.80;99.90;;;;;;4975144;28;20080;-79
2024/03/26 00:58:17;;;;;;;80.65;37.08;;;-0.90;99.90;;;;;;4992213;28;20431;-79
2024/03/26 01:00:42;;;;;;;79.07;39.70;;;-0.90;99.90;;;;;;4992542;28;20015;-79
2024/03/26 01:03:08;;;;;;;98.93;43.38;;;-0.90;99.90;;;;;;4974986;28;20023;-78
2024/03/26 01:05:33;;;;;;;113.43;50.10;;;-0.90;99.90;;;;;;4975107;28;20019;-79
2024/03/26 01:07:59;;;;;;;105.85;48.65;;;-0.90;99.90;;;;;;4992448;28;20503;-79
2024/03/26 01:10:25;;;;;;;92.05;42.13;;;-1.00;99.90;;;;;;4992609;28;20022;-79
2024/03/26 01:12:50;;;;;;;81.57;40.88;;;-1.00;99.90;;;;;;4974896;28;20041;-79
2024/03/26 01:15:16;;;;;;;93.13;42.38;;;-1.00;99.90;;;;;;4991098;28;20066;-79
2024/03/26 01:17:42;;;;;;;82.38;39.50;;;-1.10;99.90;;;;;;4975063;28;20077;-79
2024/03/26 01:20:08;;;;;;;68.88;34.90;;;-1.10;99.90;;;;;;4971422;28;20023;-79
2024/03/26 01:22:34;;;;;;;68.07;33.58;;;-1.10;99.90;;;;;;4984762;28;20023;-79
2024/03/26 01:25:00;;;;;;;64.75;30.35;;;-1.10;99.90;;;;;;4992130;28;20033;-79
2024/03/26 01:27:25;;;;;;;58.65;29.25;;;-1.10;99.90;;;;;;4974922;28;20034;-79
2024/03/26 01:29:51;;;;;;;53.78;27.88;;;-1.10;99.90;;;;;;4990097;28;20030;-79
2024/03/26 01:32:16;;;;;;;58.63;27.73;;;-1.20;99.90;;;;;;4974500;28;20772;-79
2024/03/26 01:34:42;;;;;;;75.75;34.38;;;-1.10;99.90;;;;;;4974620;28;20042;-78
2024/03/26 01:37:08;;;;;;;68.32;30.73;;;-1.10;99.90;;;;;;4992995;28;20097;-79
2024/03/26 01:39:34;;;;;;;87.30;39.25;;;-1.10;99.90;;;;;;4977910;28;20097;-78
2024/03/26 01:41:59;;;;;;;82.68;39.17;;;-1.10;99.90;;;;;;4978006;28;20466;-79
2024/03/26 01:44:25;;;;;;;88.20;41.53;;;-1.10;99.90;;;;;;4995267;28;20030;-79
2024/03/26 01:46:50;;;;;;;92.53;43.55;;;-1.10;99.90;;;;;;4977809;28;20022;-79
2024/03/26 01:49:18;;;;;;;82.85;39.15;;;-1.00;99.90;;;;;;4978010;28;20480;-79
2024/03/26 01:51:45;;;;;;;79.53;41.28;;;-0.90;99.90;;;;;;4994758;28;20019;-79
2024/03/26 01:54:11;;;;;;;80.35;37.53;;;-0.90;99.90;;;;;;4995041;28;20046;-78
2024/03/26 01:56:39;;;;;;;62.25;33.35;;;-0.90;99.90;;;;;;4977819;28;20380;-79
2024/03/26 01:59:06;;;;;;;66.40;29.25;;;-0.90;99.90;;;;;;4977797;28;20065;-79
2024/03/26 02:01:32;;;;;;;61.63;31.17;;;-0.90;99.90;;;;;;4995020;28;20019;-79
2024/03/26 02:03:57;;;;;;;74.90;37.70;;;-0.90;99.90;;;;;;4994761;28;20526;-79
2024/03/26 02:06:24;;;;;;;74.75;35.35;;;-0.90;99.90;;;;;;4977440;28;20530;-79
2024/03/26 02:08:51;;;;;;;84.03;37.28;;;-0.90;99.90;;;;;;4977568;28;20050;-79
2024/03/26 02:11:17;;;;;;;67.07;34.97;;;-0.80;99.90;;;;;;4977626;28;20032;-79
2024/03/26 02:13:46;;;;;;;73.82;36.50;;;-0.80;99.90;;;;;;4994748;28;20034;-79
2024/03/26 02:16:12;;;;;;;77.75;37.58;;;-0.80;99.90;;;;;;4994505;28;20054;-79
2024/03/26 02:18:38;;;;;;;83.07;37.60;;;-0.80;99.90;;;;;;4994836;28;20023;-80
2024/03/26 02:21:04;;;;;;;112.07;43.15;;;-0.70;99.90;;;;;;4994588;28;20499;-80
2024/03/26 02:23:30;;;;;;;104.00;43.53;;;-0.70;99.90;;;;;;4977356;28;20022;-79
2024/03/26 02:25:56;;;;;;;107.78;44.30;;;-0.70;99.90;;;;;;4977274;28;20018;-79
2024/03/26 02:28:22;;;;;;;90.97;42.67;;;-0.60;99.90;;;;;;4977082;28;20145;-79
2024/03/26 02:30:47;;;;;;;92.63;40.40;;;-0.60;99.90;;;;;;4977198;28;20030;-79
2024/03/26 02:33:13;;;;;;;113.32;41.63;;;-0.60;99.90;;;;;;4994381;28;20085;-79
2024/03/26 02:35:39;;;;;;;106.78;44.83;;;-0.60;99.90;;;;;;4994676;28;20022;-79
2024/03/26 02:38:04;;;;;;;131.93;46.08;;;-0.50;99.90;;;;;;4976319;28;20537;-79
2024/03/26 02:40:32;;;;;;;146.02;49.40;;;-0.50;99.90;;;;;;4977192;28;20022;-79
2024/03/26 02:42:59;;;;;;;117.80;42.67;;;-0.50;99.90;;;;;;4994455;28;20791;-79
2024/03/26 02:45:24;;;;;;;198.07;53.20;;;-0.40;99.90;;;;;;4994381;28;20029;-79
2024/03/26 02:47:50;;;;;;;247.38;64.28;;;-0.40;99.90;;;;;;4976584;28;20113;-80
2024/03/26 02:50:16;;;;;;;188.82;65.57;;;-0.40;99.90;;;;;;4976777;28;20400;-79
2024/03/26 02:52:41;;;;;;;145.35;57.60;;;-0.40;99.90;;;;;;4976516;28;20030;-79
2024/03/26 02:55:07;;;;;;;231.95;69.20;;;-0.30;99.90;;;;;;4976646;28;20101;-80
2024/03/26 02:57:33;;;;;;;230.45;68.88;;;-0.30;99.90;;;;;;4994075;28;20419;-80
2024/03/26 02:59:58;;;;;;;166.07;58.88;;;-0.40;99.90;;;;;;4976962;28;20030;-80
2024/03/26 03:02:24;;;;;;;121.03;47.45;;;-0.30;99.90;;;;;;4976823;28;20014;-80
2024/03/26 03:04:50;;;;;;;83.72;36.58;;;-0.30;99.90;;;;;;4976793;28;20032;-80
2024/03/26 03:07:15;;;;;;;83.43;35.70;;;-0.30;99.90;;;;;;4994024;28;20022;-79
2024/03/26 03:09:44;;;;;;;124.18;48.33;;;-0.30;99.90;;;;;;4976676;28;20026;-79
2024/03/26 03:12:10;;;;;;;121.95;46.17;;;-0.30;99.90;;;;;;4976325;28;20026;-78
2024/03/26 03:14:36;;;;;;;317.83;96.40;;;-0.30;99.90;;;;;;4993970;28;20038;-78
2024/03/26 03:17:01;;;;;;;244.27;79.32;;;-0.30;99.90;;;;;;4976324;28;20046;-78
2024/03/26 03:19:27;;;;;;;186.68;68.32;;;-0.30;99.90;;;;;;4993799;28;20049;-79
2024/03/26 03:21:52;;;;;;;208.73;67.72;;;-0.30;99.90;;;;;;4975943;28;20069;-79
2024/03/26 03:24:18;;;;;;;148.52;56.80;;;-0.30;99.90;;;;;;4993645;28;20100;-79
2024/03/26 03:26:44;;;;;;;144.52;55.08;;;-0.30;99.90;;;;;;4993585;28;20145;-79
2024/03/26 03:29:09;;;;;;;188.13;57.47;;;-0.30;99.90;;;;;;4993574;28;20030;-79
2024/03/26 03:31:35;;;;;;;164.48;53.75;;;-0.30;99.90;;;;;;4975982;28;20018;-79
2024/03/26 03:34:01;;;;;;;131.60;47.30;;;-0.40;99.90;;;;;;4993405;28;20042;-79
2024/03/26 03:36:26;;;;;;;110.13;44.97;;;-0.40;99.90;;;;;;4993339;28;20019;-79
2024/03/26 03:38:52;;;;;;;86.20;37.03;;;-0.40;99.90;;;;;;4993501;28;20065;-79
2024/03/26 03:41:18;;;;;;;68.53;29.80;;;-0.40;99.90;;;;;;4975836;28;20018;-79
2024/03/26 03:43:43;;;;;;;56.55;28.17;;;-0.50;99.90;;;;;;4993282;28;20056;-79
2024/03/26 03:46:10;;;;;;;56.97;26.27;;;-0.50;99.90;;;;;;4975745;28;20029;-79
2024/03/26 03:48:35;;;;;;;54.63;28.83;;;-0.70;99.90;;;;;;4993464;28;20023;-79
2024/03/26 03:51:01;;;;;;;56.70;27.65;;;-0.70;99.90;;;;;;4975394;28;20116;-78
2024/03/26 03:53:27;;;;;;;57.83;29.38;;;-0.70;99.90;;;;;;4975583;28;20038;-79
2024/03/26 03:55:53;;;;;;;65.03;29.77;;;-0.70;99.90;;;;;;4975462;28;20510;-79
2024/03/26 03:58:19;;;;;;;65.80;31.58;;;-0.80;99.90;;;;;;4993211;28;20034;-79
2024/03/26 04:00:44;;;;;;;69.00;29.20;;;-0.80;99.90;;;;;;4992448;28;20040;-79
2024/03/26 04:03:10;;;;;;;61.30;29.55;;;-1.00;99.90;;;;;;4975702;28;20353;-78
2024/03/26 04:05:37;;;;;;;62.90;29.45;;;-1.00;99.90;;;;;;4992845;28;20022;-79
2024/03/26 04:08:03;;;;;;;66.72;32.03;;;-1.00;99.90;;;;;;4975647;28;20022;-78
2024/03/26 04:10:30;;;;;;;58.75;27.02;;;-0.90;99.90;;;;;;4992665;28;20018;-78
2024/03/26 04:12:56;;;;;;;67.90;30.13;;;-0.90;99.90;;;;;;4975564;28;20026;-79
2024/03/26 04:15:22;;;;;;;67.00;29.77;;;-0.90;99.90;;;;;;4975183;28;20022;-79
2024/03/26 04:17:52;;;;;;;60.13;29.70;;;-0.90;99.90;;;;;;4975589;28;20069;-79
2024/03/26 04:20:18;;;;;;;69.80;30.15;;;-0.90;99.90;;;;;;4992688;28;20027;-78
2024/03/26 04:22:49;;;;;;;64.47;29.67;;;-0.90;99.90;;;;;;4992899;28;20392;-79
2024/03/26 04:25:15;;;;;;;62.23;28.30;;;-0.90;99.90;;;;;;4987743;28;20028;-78
2024/03/26 04:27:41;;;;;;;59.92;29.23;;;-0.90;99.90;;;;;;4975315;28;20046;-78
2024/03/26 04:30:08;;;;;;;63.47;27.25;;;-0.90;99.90;;;;;;4992437;28;20030;-78
2024/03/26 04:32:35;;;;;;;57.13;25.77;;;-1.00;99.90;;;;;;4975245;28;20018;-79
2024/03/26 04:35:00;;;;;;;53.20;27.13;;;-1.00;99.90;;;;;;4992513;28;20114;-78
2024/03/26 04:37:26;;;;;;;58.70;28.02;;;-1.10;99.90;;;;;;4975118;28;20101;-79
2024/03/26 04:39:51;;;;;;;60.53;28.38;;;-1.10;99.90;;;;;;4974895;28;20022;-79
2024/03/26 04:42:17;;;;;;;54.42;25.98;;;-1.10;99.90;;;;;;4992584;28;20026;-79
2024/03/26 04:44:43;;;;;;;57.08;26.55;;;-1.10;99.90;;;;;;4975098;28;20072;-79
2024/03/26 04:47:08;;;;;;;59.92;26.75;;;-1.10;99.90;;;;;;4992483;28;20492;-79
2024/03/26 04:49:34;;;;;;;54.53;25.95;;;-1.10;99.90;;;;;;4992493;28;20029;-79
2024/03/26 04:51:59;;;;;;;56.95;28.15;;;-1.20;99.90;;;;;;4975176;28;20031;-78
2024/03/26 04:54:25;;;;;;;63.97;29.25;;;-1.10;99.90;;;;;;4990638;28;20091;-79
2024/03/26 04:56:51;;;;;;;65.30;30.67;;;-1.10;99.90;;;;;;4974939;28;20121;-79
2024/03/26 04:59:17;;;;;;;62.22;29.50;;;-1.00;99.90;;;;;;4975091;28;20380;-79
2024/03/26 05:01:42;;;;;;;55.35;30.65;;;-0.90;99.90;;;;;;4975338;28;20400;-78
2024/03/26 05:04:08;;;;;;;68.93;31.30;;;-0.90;99.90;;;;;;4991991;28;20464;-78
2024/03/26 05:06:34;;;;;;;67.35;30.45;;;-0.80;99.90;;;;;;4975137;28;20031;-78
2024/03/26 05:08:59;;;;;;;67.70;32.03;;;-0.80;99.90;;;;;;4974822;28;20388;-79
2024/03/26 05:11:25;;;;;;;66.15;32.10;;;-0.70;99.90;;;;;;4975011;28;20109;-79
2024/03/26 05:13:51;;;;;;;61.60;30.77;;;-0.70;99.90;;;;;;4977937;28;20411;-78
2024/03/26 05:16:16;;;;;;;59.58;29.33;;;-0.60;99.90;;;;;;4995359;28;20053;-79
2024/03/26 05:18:42;;;;;;;70.15;31.38;;;-0.50;99.90;;;;;;4978322;28;20029;-78
2024/03/26 05:21:08;;;;;;;63.90;32.03;;;-0.40;99.90;;;;;;4995982;28;20102;-79
2024/03/26 05:23:33;;;;;;;62.67;31.27;;;-0.30;99.90;;;;;;4995772;28;20015;-79
2024/03/26 05:25:59;;;;;;;65.07;31.23;;;-0.20;99.90;;;;;;4995586;28;20053;-79
2024/03/26 05:28:24;;;;;;;68.82;31.17;;;-0.10;99.90;;;;;;4978444;28;20547;-79
2024/03/26 05:30:50;;;;;;;66.95;30.98;;;-0.10;99.90;;;;;;4989424;28;20031;-79
2024/03/26 05:33:16;;;;;;;61.55;30.85;;;0.10;99.90;;;;;;4995089;28;20023;-79
2024/03/26 05:35:45;;;;;;;69.55;31.27;;;0.20;99.90;;;;;;4977999;28;20028;-79
2024/03/26 05:38:10;;;;;;;67.30;31.25;;;0.30;99.90;;;;;;4992639;28;20053;-80
2024/03/26 05:40:36;;;;;;;66.43;31.25;;;0.40;99.90;;;;;;4995092;28;20058;-79
2024/03/26 05:43:02;;;;;;;64.93;34.10;;;0.50;99.90;;;;;;4977101;28;20027;-80
2024/03/26 05:45:27;;;;;;;86.78;40.72;;;0.60;99.90;;;;;;4995077;28;20029;-80
2024/03/26 05:47:53;;;;;;;61.40;31.13;;;0.70;99.90;;;;;;5001400;28;20022;-79
2024/03/26 05:50:19;;;;;;;61.42;30.77;;;0.90;99.90;;;;;;4977692;28;20030;-78
2024/03/26 05:52:46;;;;;;;61.58;29.65;;;1.00;99.90;;;;;;4974809;28;20104;-80
2024/03/26 05:55:11;;;;;;;57.55;28.48;;;1.10;99.90;;;;;;4993416;28;20037;-80
2024/03/26 05:57:37;;;;;;;56.85;29.25;;;1.10;99.90;;;;;;4976672;28;20089;-80
2024/03/26 06:00:03;;;;;;;60.58;29.70;;;1.30;99.90;;;;;;4994991;28;20031;-80
2024/03/26 06:02:28;;;;;;;57.30;30.13;;;1.40;99.90;;;;;;4977012;28;20506;-80
2024/03/26 06:04:54;;;;;;;61.75;29.55;;;1.50;99.90;;;;;;4989622;28;20022;-80
2024/03/26 06:07:20;;;;;;;63.42;28.95;;;1.60;99.90;;;;;;4994563;28;20030;-80
2024/03/26 06:09:45;;;;;;;70.63;32.17;;;1.70;99.90;;;;;;4977128;28;20388;-78
2024/03/26 06:12:11;;;;;;;83.60;36.90;;;1.80;99.90;;;;;;4994380;28;20395;-78
2024/03/26 06:14:36;;;;;;;95.43;38.78;;;2.00;99.90;;;;;;4977343;28;20030;-78
2024/03/26 06:17:02;;;;;;;91.07;38.40;;;2.10;99.90;;;;;;4976724;28;20054;-79
2024/03/26 06:19:28;;;;;;;75.38;34.38;;;2.20;99.90;;;;;;4994852;28;20029;-79
2024/03/26 06:21:54;;;;;;;54.47;25.92;;;2.30;99.90;;;;;;4994735;28;20033;-79
2024/03/26 06:24:20;;;;;;;40.20;21.02;;;2.50;99.90;;;;;;4993312;28;20065;-79
2024/03/26 06:26:45;;;;;;;37.97;19.95;;;2.70;99.90;;;;;;4976128;28;20492;-79
2024/03/26 06:29:11;;;;;;;49.92;24.25;;;2.80;99.90;;;;;;4976426;28;20053;-79
2024/03/26 06:31:37;;;;;;;41.25;22.63;;;2.90;99.90;;;;;;4976331;28;20026;-79
2024/03/26 06:34:02;;;;;;;48.05;26.67;;;3.00;99.90;;;;;;4993222;28;20388;-79
2024/03/26 06:36:28;;;;;;;42.05;22.25;;;3.10;99.90;;;;;;4993714;28;20077;-79
2024/03/26 06:38:54;;;;;;;32.42;18.58;;;3.20;99.90;;;;;;4991066;28;20023;-79
2024/03/26 06:41:19;;;;;;;37.22;20.13;;;3.40;99.90;;;;;;4993050;28;20014;-79
2024/03/26 06:43:45;;;;;;;38.75;20.05;;;3.50;99.90;;;;;;4975225;28;20030;-78
2024/03/26 06:46:11;;;;;;;29.73;18.52;;;3.70;99.90;;;;;;4993976;28;20399;-78
2024/03/26 06:48:37;;;;;;;30.40;17.67;;;3.80;99.90;;;;;;4994032;28;20091;-78
2024/03/26 06:51:04;;;;;;;28.77;17.23;;;3.90;99.90;;;;;;4974853;28;20026;-78
2024/03/26 06:53:29;;;;;;;32.20;18.15;;;4.00;99.90;;;;;;4985336;28;20060;-78
2024/03/26 06:55:55;;;;;;;25.52;15.40;;;4.20;99.90;;;;;;4993866;28;20476;-78
2024/03/26 06:58:20;;;;;;;28.27;16.60;;;4.30;99.90;;;;;;4973870;28;20042;-79
2024/03/26 07:00:48;;;;;;;26.88;15.95;;;4.50;99.90;;;;;;4990618;28;20018;-78
2024/03/26 07:03:14;;;;;;;26.98;15.00;;;4.70;99.90;;;;;;4992057;28;20076;-78
2024/03/26 07:05:39;;;;;;;24.05;12.70;;;4.80;99.90;;;;;;4992012;28;20093;-78
2024/03/26 07:08:05;;;;;;;19.25;12.48;;;4.90;99.90;;;;;;4991840;28;20021;-78
2024/03/26 07:10:31;;;;;;;19.35;11.68;;;5.00;99.90;;;;;;4992158;28;20026;-78
2024/03/26 07:12:56;;;;;;;16.02;10.40;;;5.10;99.90;;;;;;4974424;28;20442;-78
2024/03/26 07:15:23;;;;;;;18.55;11.25;;;5.30;99.90;;;;;;4974013;28;20030;-78
2024/03/26 07:17:49;;;;;;;18.55;10.68;;;5.40;99.90;;;;;;4992080;28;20034;-78
2024/03/26 07:20:15;;;;;;;15.13;10.05;;;5.40;99.90;;;;;;4974254;28;20101;-78
2024/03/26 07:22:40;;;;;;;17.00;10.57;;;5.50;99.90;;;;;;4974458;28;20133;-78
2024/03/26 07:25:06;;;;;;;18.60;10.57;;;5.70;99.90;;;;;;4974672;28;20105;-78
2024/03/26 07:27:32;;;;;;;15.90;9.15;;;5.80;99.90;;;;;;4996618;28;20030;-78
2024/03/26 07:30:04;;;;;;;17.42;10.85;;;5.90;99.90;;;;;;4993525;28;20026;-79
2024/03/26 07:32:29;;;;;;;18.00;10.15;;;6.00;99.90;;;;;;4976255;28;20105;-78
2024/03/26 07:34:55;;;;;;;13.20;8.10;;;6.30;99.90;;;;;;4992331;28;20117;-78
2024/03/26 07:37:20;;;;;;;14.55;9.02;;;6.30;99.90;;;;;;4975979;28;20476;-78
2024/03/26 07:39:46;;;;;;;13.23;8.20;;;6.40;99.90;;;;;;4993119;28;20102;-78
2024/03/26 07:42:12;;;;;;;13.15;7.60;;;6.50;99.90;;;;;;4975864;28;20019;-76
2024/03/26 07:44:37;;;;;;;14.05;7.20;;;6.60;99.90;;;;;;4993131;28;20089;-76
2024/03/26 07:47:04;;;;;;;13.63;8.77;;;6.60;99.90;;;;;;4975944;28;20038;-76
2024/03/26 07:49:30;;;;;;;9.52;6.80;;;6.70;99.90;;;;;;4993208;28;20111;-76
2024/03/26 07:51:56;;;;;;;9.23;6.88;;;6.90;99.90;;;;;;4975689;28;20054;-76
2024/03/26 07:54:22;;;;;;;9.25;6.50;;;7.00;99.90;;;;;;4992669;28;20042;-76
2024/03/26 07:56:48;;;;;;;10.88;6.60;;;7.10;99.90;;;;;;4993066;28;20081;-76
2024/03/26 07:59:13;;;;;;;6.53;5.75;;;7.20;99.90;;;;;;4993066;28;20502;-76
2024/03/26 08:01:39;;;;;;;8.43;5.65;;;7.30;99.90;;;;;;4993228;28;20076;-76
2024/03/26 08:04:05;;;;;;;9.73;5.22;;;7.40;99.40;;;;;;4992692;28;20079;-76
2024/03/26 08:06:31;;;;;;;6.93;5.15;;;7.40;95.70;;;;;;4975717;28;20480;-76
2024/03/26 08:08:57;;;;;;;7.25;4.90;;;7.60;97.80;;;;;;4992788;28;20032;-76
2024/03/26 08:11:23;;;;;;;8.13;5.60;;;7.70;93.30;;;;;;4992609;28;20109;-76
2024/03/26 08:13:49;;;;;;;5.75;4.60;;;7.70;92.90;;;;;;4992762;28;20030;-76
2024/03/26 08:16:15;;;;;;;8.05;4.68;;;7.70;86.20;;;;;;4992169;28;20053;-76
2024/03/26 08:18:41;;;;;;;6.40;4.50;;;7.70;86.20;;;;;;4983482;28;20034;-76
2024/03/26 08:21:06;;;;;;;5.32;4.47;;;8.00;87.70;;;;;;4992876;28;20021;-76
2024/03/26 08:23:32;;;;;;;6.05;3.80;;;7.90;82.70;;;;;;4975299;28;20142;-76
2024/03/26 08:25:59;;;;;;;7.05;4.88;;;7.90;82.00;;;;;;4992790;28;20635;-76
2024/03/26 08:28:25;;;;;;;6.13;4.20;;;8.00;84.80;;;;;;4975245;28;20022;-76
2024/03/26 08:30:50;;;;;;;5.80;4.18;;;8.10;86.20;;;;;;4992851;28;20030;-76
2024/03/26 08:33:21;;;;;;;6.35;4.63;;;8.20;83.60;;;;;;4992700;28;20026;-76
2024/03/26 08:35:47;;;;;;;4.63;3.55;;;8.20;79.90;;;;;;4992824;28;20113;-76
2024/03/26 08:38:12;;;;;;;5.28;4.15;;;8.40;79.60;;;;;;4992460;28;20083;-76
2024/03/26 08:40:38;;;;;;;5.72;3.72;;;8.40;79.10;;;;;;4975244;28;20539;-76
2024/03/26 08:43:04;;;;;;;4.50;3.00;;;8.40;76.20;;;;;;4992565;28;20050;-76
2024/03/26 08:45:29;;;;;;;5.28;3.53;;;8.40;74.40;;;;;;4992783;28;20030;-76
2024/03/26 08:47:56;;;;;;;4.65;3.58;;;8.40;74.20;;;;;;4996774;28;20039;-76
2024/03/26 08:50:22;;;;;;;5.20;3.50;;;8.60;76.40;;;;;;4996618;28;20062;-76
2024/03/26 08:52:48;;;;;;;5.95;4.28;;;8.70;73.60;;;;;;4996273;28;20033;-77
2024/03/26 08:55:14;;;;;;;6.93;4.10;;;8.70;73.20;;;;;;4996495;28;20042;-76
2024/03/26 08:57:39;;;;;;;3.80;3.17;;;8.90;73.10;;;;;;4996482;28;20060;-76
2024/03/26 09:00:09;;;;;;;6.07;3.58;;;9.00;72.90;;;;;;4997256;28;20080;-76
2024/03/26 09:02:35;;;;;;;4.82;3.63;;;9.10;71.40;;;;;;5007811;28;20054;-76
2024/03/26 09:05:00;;;;;;;7.50;4.13;;;9.20;72.40;;;;;;5002765;28;20128;-76
2024/03/26 09:07:27;;;;;;;5.05;4.43;;;9.30;72.90;;;;;;4978886;28;20105;-76
2024/03/26 09:09:52;;;;;;;5.25;4.18;;;9.30;71.70;;;;;;4995975;28;20018;-76
2024/03/26 09:12:18;;;;;;;4.13;3.47;;;9.40;72.40;;;;;;4995443;28;20105;-76
2024/03/26 09:14:44;;;;;;;5.85;4.10;;;9.50;71.20;;;;;;4978510;28;20484;-76
2024/03/26 09:17:09;;;;;;;4.13;3.47;;;9.60;72.50;;;;;;4995609;28;20129;-76
2024/03/26 09:19:35;;;;;;;4.70;3.50;;;9.50;69.50;;;;;;4996150;28;20031;-76
2024/03/26 09:22:00;;;;;;;3.75;3.30;;;9.50;70.60;;;;;;4977957;28;20022;-76
2024/03/26 09:24:26;;;;;;;5.65;3.75;;;9.60;69.40;;;;;;4978490;28;20038;-76
2024/03/26 09:26:52;;;;;;;5.53;3.88;;;9.70;69.80;;;;;;4995709;28;20034;-76
2024/03/26 09:29:17;;;;;;;4.30;3.35;;;9.70;69.50;;;;;;4978498;28;20022;-76
2024/03/26 09:31:43;;;;;;;3.88;3.50;;;9.80;69.00;;;;;;4977879;28;20053;-76
2024/03/26 09:34:09;;;;;;;4.97;3.40;;;9.80;69.90;;;;;;4995266;28;20038;-75
2024/03/26 09:36:34;;;;;;;7.25;3.90;;;10.00;69.90;;;;;;4978177;28;20050;-76
2024/03/26 09:39:00;;;;;;;4.20;3.22;;;10.10;69.10;;;;;;4978263;28;20056;-76
2024/03/26 09:41:28;;;;;;;3.10;2.72;;;10.00;67.80;;;;;;4995580;28;20038;-76
2024/03/26 09:43:54;;;;;;;5.78;3.38;;;10.10;64.80;;;;;;4995789;28;20026;-76
2024/03/26 09:46:23;;;;;;;3.25;2.65;;;10.20;63.60;;;;;;4995211;28;20026;-76
2024/03/26 09:48:51;;;;;;;7.32;3.33;;;10.20;63.60;;;;;;4995960;28;20030;-76
2024/03/26 09:51:18;;;;;;;3.50;2.63;;;10.20;63.30;;;;;;4993891;28;20022;-76
2024/03/26 09:53:44;;;;;;;5.03;2.95;;;10.20;62.30;;;;;;4994409;28;20113;-75
2024/03/26 09:56:11;;;;;;;2.83;2.63;;;10.20;62.90;;;;;;4993628;28;20134;-76
2024/03/26 09:58:37;;;;;;;5.88;2.70;;;10.30;62.80;;;;;;4994384;28;20492;-76
2024/03/26 10:01:03;;;;;;;3.95;3.55;;;10.50;65.10;;;;;;4994193;28;20112;-76
2024/03/26 10:03:32;;;;;;;3.72;3.30;;;10.50;64.10;;;;;;4961399;28;20025;-75
2024/03/26 10:05:59;;;;;;;17.88;10.85;;;10.50;64.40;;;;;;4995162;28;20026;-76
2024/03/26 10:08:25;;;;;;;6.18;4.50;;;10.50;65.60;;;;;;4994834;28;20073;-76
2024/03/26 10:10:51;;;;;;;4.53;3.45;;;10.60;64.80;;;;;;4995128;28;20034;-76
2024/03/26 10:13:17;;;;;;;7.18;4.90;;;10.50;63.90;;;;;;4977372;28;20021;-75
2024/03/26 10:15:44;;;;;;;7.35;4.60;;;10.60;66.20;;;;;;4994932;28;20514;-76
2024/03/26 10:18:09;;;;;;;4.82;3.38;;;10.60;65.20;;;;;;4994238;28;20058;-76
2024/03/26 10:20:35;;;;;;;5.57;4.22;;;10.70;65.70;;;;;;4977552;28;20054;-76
2024/03/26 10:23:06;;;;;;;7.03;5.47;;;10.70;66.30;;;;;;4994781;28;20033;-76
2024/03/26 10:25:32;;;;;;;6.45;4.35;;;10.90;67.50;;;;;;4977399;28;20034;-75
2024/03/26 10:28:00;;;;;;;5.05;3.60;;;10.90;66.00;;;;;;4994435;28;20022;-76
2024/03/26 10:30:26;;;;;;;4.53;3.08;;;10.90;64.90;;;;;;4994897;28;20026;-76
2024/03/26 10:32:58;;;;;;;3.85;3.42;;;11.00;64.80;;;;;;4994672;28;20029;-76
2024/03/26 10:35:25;;;;;;;5.38;3.38;;;11.10;63.70;;;;;;4994754;28;20040;-76
2024/03/26 10:37:56;;;;;;;4.18;3.70;;;11.10;62.30;;;;;;4976892;28;20034;-76
2024/03/26 10:40:37;;;;;;;4.00;3.65;;;11.20;64.20;;;;;;4977214;28;20069;-76
2024/03/26 10:43:03;;;;;;;4.70;2.97;;;11.20;64.00;;;;;;4976882;28;20030;-75
2024/03/26 10:45:30;;;;;;;6.30;4.03;;;11.20;64.10;;;;;;4994558;28;20077;-76
2024/03/26 10:47:56;;;;;;;4.68;4.20;;;11.30;63.90;;;;;;4994259;28;20026;-76
2024/03/26 10:50:23;;;;;;;4.03;3.25;;;11.40;64.70;;;;;;4994337;28;20026;-76
2024/03/26 10:52:51;;;;;;;5.70;4.28;;;11.50;63.00;;;;;;4994123;28;20141;-76
2024/03/26 10:55:17;;;;;;;4.18;3.55;;;11.60;64.10;;;;;;4994019;28;20046;-75
2024/03/26 10:57:44;;;;;;;7.85;3.60;;;11.50;63.10;;;;;;4976592;28;20018;-76
2024/03/26 11:00:12;;;;;;;3.10;2.85;;;11.50;63.40;;;;;;4994285;28;20034;-75
2024/03/26 11:02:47;;;;;;;4.30;3.15;;;11.50;61.60;;;;;;4994408;28;20025;-76
2024/03/26 11:05:16;;;;;;;5.53;3.53;;;11.60;62.50;;;;;;4976167;28;20046;-75
2024/03/26 11:07:43;;;;;;;4.28;3.42;;;11.60;62.80;;;;;;4976619;28;20480;-75
2024/03/26 11:10:15;;;;;;;8.85;3.78;;;11.70;63.20;;;;;;4993685;28;20064;-75
2024/03/26 11:12:41;;;;;;;;;;;11.80;63.20;;;;;;4994395;28;20026;-76
2024/03/26 11:15:21;;;;;;;5.80;3.50;;;11.90;62.90;;;;;;4992214;28;20398;-76
2024/03/26 11:18:07;;;;;;;6.03;4.70;;;11.90;59.50;;;;;;4957492;28;20074;-76
2024/03/26 11:20:33;;;;;;;7.70;4.68;;;12.10;60.20;;;;;;4984013;28;20026;-76
2024/03/26 11:23:05;;;;;;;6.43;3.47;;;12.10;60.00;;;;;;4972783;28;20019;-76
2024/03/26 11:25:33;;;;;;;9.38;6.40;;;12.10;59.50;;;;;;4973036;28;20366;-76
2024/03/26 11:28:01;;;;;;;6.78;3.90;;;12.10;59.20;;;;;;4966516;28;20038;-76
2024/03/26 11:30:28;;;;;;;3.72;3.30;;;12.20;59.30;;;;;;4967013;28;20428;-76
2024/03/26 11:32:54;;;;;;;3.72;3.00;;;12.40;58.90;;;;;;4972084;28;20031;-77
2024/03/26 11:35:21;;;;;;;4.03;3.63;;;12.30;58.30;;;;;;4973329;28;20031;-77
2024/03/26 11:37:49;;;;;;;7.57;5.70;;;12.30;59.70;;;;;;4971844;28;20047;-77
2024/03/26 11:40:15;;;;;;;5.82;3.25;;;12.30;59.00;;;;;;4984758;28;20464;-75
2024/03/26 11:42:45;;;;;;;5.63;3.88;;;12.30;59.70;;;;;;4972385;28;20050;-76
2024/03/26 11:45:11;;;;;;;6.03;3.92;;;12.50;59.40;;;;;;4969079;28;20093;-76
2024/03/26 11:47:37;;;;;;;4.43;3.38;;;12.60;58.50;;;;;;4972395;28;20030;-76
2024/03/26 11:50:03;;;;;;;8.60;4.10;;;12.50;57.20;;;;;;4973171;28;20560;-76
2024/03/26 11:52:28;;;;;;;12.07;7.90;;;12.60;58.30;;;;;;4972358;28;20413;-76
2024/03/26 11:54:56;;;;;;;9.10;5.35;;;12.60;58.50;;;;;;4977429;28;20110;-76
2024/03/26 11:57:23;;;;;;;8.25;5.80;;;12.60;59.00;;;;;;4973087;28;20027;-76
2024/03/26 11:59:50;;;;;;;7.68;4.88;;;12.60;59.50;;;;;;4971910;28;20473;-77
2024/03/26 12:02:16;;;;;;;11.40;6.25;;;12.70;58.60;;;;;;4964253;28;20023;-76
2024/03/26 12:04:42;;;;;;;4.25;3.00;;;12.70;57.40;;;;;;4971012;28;20038;-75
2024/03/26 12:07:20;;;;;;;12.52;5.95;;;12.90;57.00;;;;;;4979220;28;20030;-76
2024/03/26 12:09:46;;;;;;;6.28;3.97;;;12.90;56.20;;;;;;4960620;28;20026;-76
2024/03/26 12:12:12;;;;;;;9.30;5.22;;;13.00;56.80;;;;;;4973430;28;20038;-76
2024/03/26 12:14:39;;;;;;;4.28;3.05;;;13.00;55.60;;;;;;4971145;28;20027;-76
2024/03/26 12:17:05;;;;;;;5.20;3.20;;;13.20;55.10;;;;;;4988795;28;20400;-75
2024/03/26 12:19:32;;;;;;;18.17;9.18;;;13.20;55.10;;;;;;4993371;28;20030;-76
2024/03/26 12:21:58;;;;;;;5.05;2.85;;;13.20;54.70;;;;;;4973614;28;20069;-77
2024/03/26 12:24:24;;;;;;;14.70;7.38;;;13.20;56.00;;;;;;4967428;28;20117;-75
2024/03/26 12:26:50;;;;;;;5.80;3.30;;;13.10;56.80;;;;;;4972198;28;20555;-76
2024/03/26 12:29:16;;;;;;;11.98;7.20;;;13.20;54.90;;;;;;4973350;28;20121;-75
2024/03/26 12:31:41;;;;;;;5.25;3.78;;;13.10;54.80;;;;;;4973557;28;20531;-76